Time;durP1;ratioP1;P1;durP2;ratioP2;P2;SDS_P1;SDS_P2;PMS_P1;PMS_P2;Temp;Humidity;BMP_temperature;BMP_pressure;BME280_temperature;BME280_humidity;BME280_pressure;Samples;Min_cycle;Max_cycle;Signal;HPM_P1;HPM_P2
2022/10/08 00:00:01;;;;;;;1.50;1.15;;;20.60;47.60;;;;;;5136552;28;20051;-11
2022/10/08 00:02:28;;;;;;;1.33;1.10;;;20.60;47.50;;;;;;5135908;28;20402;-11
2022/10/08 00:04:54;;;;;;;1.38;1.00;;;20.60;47.50;;;;;;5135973;28;20081;-11
2022/10/08 00:07:19;;;;;;;1.42;0.95;;;20.60;47.50;;;;;;5136194;28;20090;-11
2022/10/08 00:09:45;;;;;;;1.00;0.88;;;20.60;47.50;;;;;;5135781;28;20051;-11
2022/10/08 00:12:11;;;;;;;1.20;1.02;;;20.50;47.50;;;;;;5136142;28;20091;-11
2022/10/08 00:14:38;;;;;;;1.20;1.05;;;20.60;47.50;;;;;;5135737;28;20058;-11
2022/10/08 00:17:04;;;;;;;1.65;1.00;;;20.60;47.50;;;;;;5135717;28;20556;-10
2022/10/08 00:19:29;;;;;;;1.42;1.02;;;20.60;47.50;;;;;;5135676;28;20047;-11
2022/10/08 00:21:56;;;;;;;1.73;1.10;;;20.60;47.50;;;;;;5136090;28;20479;-11
2022/10/08 00:24:22;;;;;;;1.17;1.00;;;20.60;47.50;;;;;;5136153;28;20043;-11
2022/10/08 00:26:51;;;;;;;2.33;1.20;;;20.60;47.50;;;;;;5135577;28;20174;-11
2022/10/08 00:29:19;;;;;;;1.13;1.02;;;20.60;47.50;;;;;;5116913;28;20047;-11
2022/10/08 00:31:47;;;;;;;1.88;1.25;;;20.60;47.60;;;;;;5135553;28;20047;-11
2022/10/08 00:34:19;;;;;;;1.40;0.93;;;20.50;47.50;;;;;;5135674;28;20141;-11
2022/10/08 00:36:46;;;;;;;1.42;1.02;;;20.50;47.50;;;;;;5135460;28;20055;-11
2022/10/08 00:39:16;;;;;;;1.33;1.00;;;20.50;47.50;;;;;;5135473;28;20055;-11
2022/10/08 00:41:44;;;;;;;1.55;1.30;;;20.50;47.50;;;;;;5135582;28;20390;-11
2022/10/08 00:44:55;;;;;;;1.20;1.00;;;20.60;47.60;;;;;;5135163;28;20057;-11
2022/10/08 00:47:33;;;;;;;2.13;1.10;;;20.50;47.50;;;;;;5111276;28;20044;-11
2022/10/08 00:50:23;;;;;;;1.27;1.17;;;20.50;47.50;;;;;;5135192;28;20043;-11
2022/10/08 00:53:00;;;;;;;3.10;1.52;;;20.50;47.50;;;;;;5134575;28;20055;-11
2022/10/08 00:55:26;;;;;;;1.55;1.30;;;20.50;47.50;;;;;;5135154;28;20066;-11
2022/10/08 00:58:00;;;;;;;1.30;1.00;;;20.50;47.50;;;;;;5134899;28;20055;-11
2022/10/08 01:00:26;;;;;;;1.23;1.00;;;20.50;47.60;;;;;;5135024;28;20187;-11
2022/10/08 01:02:52;;;;;;;2.17;1.23;;;20.50;47.50;;;;;;5134495;27;20138;-11
2022/10/08 01:05:40;;;;;;;1.05;0.80;;;20.50;47.50;;;;;;5134869;28;20503;-11
2022/10/08 01:08:15;;;;;;;1.63;1.25;;;20.50;47.60;;;;;;5134799;28;20047;-11
2022/10/08 01:11:01;;;;;;;1.85;1.20;;;20.50;47.50;;;;;;5134915;28;20134;-11
2022/10/08 01:13:40;;;;;;;2.10;1.15;;;20.50;47.50;;;;;;5134795;28;20051;-11
2022/10/08 01:16:12;;;;;;;1.30;1.02;;;20.50;47.50;;;;;;5135072;28;20043;-11
2022/10/08 01:19:10;;;;;;;1.25;0.90;;;20.50;47.50;;;;;;5134641;28;20430;-11
2022/10/08 01:22:17;;;;;;;1.40;0.80;;;20.50;47.50;;;;;;5134693;28;20151;-11
2022/10/08 01:27:41;;;;;;;1.15;1.00;;;20.50;47.60;;;;;;5134861;28;20103;-11
2022/10/08 01:30:13;;;;;;;1.02;0.93;;;20.50;47.50;;;;;;5134910;28;20070;-11
2022/10/08 01:33:14;;;;;;;1.88;1.17;;;20.50;47.50;;;;;;5134831;28;20461;-11
2022/10/08 01:35:49;;;;;;;1.63;1.10;;;20.50;47.60;;;;;;5064451;28;20039;-11
2022/10/08 01:38:18;;;;;;;1.88;1.10;;;20.50;47.60;;;;;;5134397;28;20123;-11
2022/10/08 01:40:45;;;;;;;2.38;1.30;;;20.50;47.60;;;;;;5134281;28;20480;-11
2022/10/08 01:43:15;;;;;;;1.55;1.25;;;20.50;47.60;;;;;;5134868;28;20043;-11
2022/10/08 01:45:47;;;;;;;1.38;0.88;;;20.50;47.60;;;;;;5134347;28;20049;-11
2022/10/08 01:48:18;;;;;;;2.45;1.17;;;20.50;47.60;;;;;;5134160;28;20520;-11
2022/10/08 01:50:52;;;;;;;1.40;1.10;;;20.50;47.60;;;;;;5134325;28;20047;-11
2022/10/08 01:53:21;;;;;;;1.23;1.00;;;20.50;47.60;;;;;;5134811;28;20059;-11
2022/10/08 01:55:50;;;;;;;1.50;0.98;;;20.50;47.60;;;;;;5134490;28;20055;-11
2022/10/08 01:58:35;;;;;;;1.27;1.02;;;20.50;47.60;;;;;;5133819;28;20452;-11
2022/10/08 02:01:12;;;;;;;1.10;1.00;;;20.50;47.60;;;;;;5134260;28;20103;-11
2022/10/08 02:04:31;;;;;;;1.35;1.05;;;20.50;47.60;;;;;;5134312;28;20054;-11
2022/10/08 02:06:25;;;;;;;1.20;1.00;;;20.50;47.60;;;;;;5134173;28;20158;-11
2022/10/08 02:08:51;;;;;;;1.42;0.98;;;20.50;47.60;;;;;;5133976;28;20053;-11
2022/10/08 02:11:17;;;;;;;1.40;1.02;;;20.50;47.60;;;;;;5133878;28;20473;-11
2022/10/08 02:13:42;;;;;;;1.63;1.10;;;20.40;47.50;;;;;;5133835;28;20051;-11
2022/10/08 02:16:15;;;;;;;1.52;1.00;;;20.50;47.60;;;;;;5132721;27;20051;-11
2022/10/08 02:19:04;;;;;;;2.38;1.30;;;20.50;47.60;;;;;;5134075;28;20051;-11
2022/10/08 02:21:31;;;;;;;0.98;0.90;;;20.40;47.60;;;;;;5133540;28;20162;-11
2022/10/08 02:24:09;;;;;;;1.38;0.82;;;20.40;47.60;;;;;;5134033;28;20138;-11
2022/10/08 02:26:42;;;;;;;1.83;1.05;;;20.40;47.60;;;;;;5133670;28;20103;-11
2022/10/08 02:29:19;;;;;;;2.67;1.40;;;20.40;47.60;;;;;;5133685;28;20054;-11
2022/10/08 02:32:01;;;;;;;1.42;1.10;;;20.40;47.60;;;;;;5134000;28;20047;-11
2022/10/08 02:34:36;;;;;;;1.58;1.10;;;20.40;47.60;;;;;;5133167;28;20047;-11
2022/10/08 02:37:14;;;;;;;1.17;0.98;;;20.40;47.60;;;;;;5133982;28;20486;-11
2022/10/08 02:39:46;;;;;;;1.58;1.02;;;20.40;47.60;;;;;;5133764;28;20055;-11
2022/10/08 02:42:16;;;;;;;1.83;1.45;;;20.40;47.60;;;;;;5114587;28;20900;-11
2022/10/08 02:44:59;;;;;;;1.33;0.90;;;20.40;47.60;;;;;;5133423;28;20495;-11
2022/10/08 02:47:29;;;;;;;1.20;0.90;;;20.40;47.60;;;;;;5133406;28;20080;-11
2022/10/08 02:50:02;;;;;;;1.47;1.00;;;20.40;47.60;;;;;;5133402;28;20050;-11
2022/10/08 02:52:34;;;;;;;1.00;0.90;;;20.40;47.60;;;;;;5133378;28;20142;-11
2022/10/08 02:55:05;;;;;;;2.92;1.20;;;20.40;47.60;;;;;;5133410;28;20062;-11
2022/10/08 02:57:38;;;;;;;0.95;0.88;;;20.40;47.60;;;;;;5133408;28;20074;-11
2022/10/08 03:00:04;;;;;;;1.67;1.02;;;20.40;47.60;;;;;;5133968;28;20180;-11
2022/10/08 03:02:42;;;;;;;0.90;0.90;;;20.40;47.60;;;;;;5133215;28;20077;-11
2022/10/08 03:05:14;;;;;;;1.10;1.00;;;20.40;47.60;;;;;;5133563;28;20043;-11
2022/10/08 03:07:41;;;;;;;1.20;0.82;;;20.40;47.60;;;;;;5133399;28;20080;-11
2022/10/08 03:10:07;;;;;;;1.50;0.98;;;20.40;47.60;;;;;;5133230;28;20051;-11
2022/10/08 03:12:33;;;;;;;2.00;1.30;;;20.40;47.60;;;;;;5133429;28;20059;-11
2022/10/08 03:15:00;;;;;;;1.15;0.95;;;20.40;47.70;;;;;;5133598;28;20360;-11
2022/10/08 03:17:35;;;;;;;1.00;0.90;;;20.40;47.70;;;;;;5132849;28;20108;-11
2022/10/08 03:20:02;;;;;;;1.10;1.00;;;20.40;47.60;;;;;;5132956;28;20141;-11
2022/10/08 03:22:29;;;;;;;2.28;1.33;;;20.40;47.60;;;;;;5133188;28;20063;-11
2022/10/08 03:24:55;;;;;;;0.60;0.60;;;20.40;47.60;;;;;;5133092;28;20045;-11
2022/10/08 03:27:20;;;;;;;1.38;0.77;;;20.40;47.60;;;;;;5135193;27;20488;-11
2022/10/08 03:29:46;;;;;;;1.20;0.90;;;20.40;47.60;;;;;;5136563;28;20051;-11
2022/10/08 03:32:11;;;;;;;1.30;0.98;;;20.40;47.60;;;;;;5136614;28;20059;-11
2022/10/08 03:34:37;;;;;;;1.45;1.10;;;20.40;47.60;;;;;;5136445;28;20047;-11
2022/10/08 03:37:03;;;;;;;2.15;1.20;;;20.40;47.60;;;;;;5136401;28;20047;-11
2022/10/08 03:39:29;;;;;;;1.40;1.08;;;20.40;47.60;;;;;;5136439;28;20058;-11
2022/10/08 03:41:55;;;;;;;1.35;1.00;;;20.40;47.60;;;;;;5117735;28;20489;-11
2022/10/08 03:44:21;;;;;;;1.25;1.00;;;20.40;47.60;;;;;;5136553;28;20110;-11
2022/10/08 03:46:46;;;;;;;1.52;1.10;;;20.40;47.50;;;;;;5136697;28;20063;-11
2022/10/08 03:49:12;;;;;;;1.08;0.90;;;20.50;47.50;;;;;;5135923;28;20063;-10
2022/10/08 03:51:38;;;;;;;2.13;1.17;;;20.50;47.50;;;;;;5136007;28;20055;-11
2022/10/08 03:54:04;;;;;;;1.13;0.95;;;20.50;47.50;;;;;;5116626;28;20066;-11
2022/10/08 03:56:29;;;;;;;1.73;1.15;;;20.60;47.40;;;;;;5135996;28;20055;-11
2022/10/08 03:58:57;;;;;;;1.38;1.13;;;20.60;47.30;;;;;;5135802;28;20067;-11
2022/10/08 04:01:24;;;;;;;1.42;1.10;;;20.60;47.30;;;;;;5135767;28;20058;-11
2022/10/08 04:03:49;;;;;;;1.10;0.90;;;20.60;47.30;;;;;;5135860;28;20047;-11
2022/10/08 04:06:16;;;;;;;2.40;0.90;;;20.60;47.20;;;;;;5135920;28;20057;-11
2022/10/08 04:08:41;;;;;;;1.77;1.20;;;20.60;47.10;;;;;;5135617;28;20055;-11
2022/10/08 04:11:10;;;;;;;1.83;1.00;;;20.70;47.10;;;;;;5135930;28;20134;-11
2022/10/08 04:13:36;;;;;;;1.77;0.98;;;20.70;47.00;;;;;;5135834;28;20058;-11
2022/10/08 04:16:20;;;;;;;1.42;1.15;;;20.70;46.90;;;;;;5135998;28;20059;-11
2022/10/08 04:18:47;;;;;;;1.02;0.93;;;20.80;47.00;;;;;;5135589;28;20058;-11
2022/10/08 04:21:15;;;;;;;0.80;0.80;;;20.80;46.90;;;;;;5135396;28;20472;-11
2022/10/08 04:23:42;;;;;;;1.88;1.33;;;20.80;46.80;;;;;;5135948;28;20539;-11
2022/10/08 04:26:09;;;;;;;2.30;1.30;;;20.90;46.80;;;;;;5135684;28;20047;-11
2022/10/08 04:28:40;;;;;;;1.30;1.00;;;20.90;46.70;;;;;;5135440;28;20150;-11
2022/10/08 04:31:16;;;;;;;1.07;0.80;;;20.90;46.60;;;;;;5135522;28;20058;-11
2022/10/08 04:33:42;;;;;;;1.75;1.13;;;20.90;46.60;;;;;;5135748;28;20142;-11
2022/10/08 04:36:09;;;;;;;1.63;0.93;;;20.90;46.60;;;;;;5136076;28;20138;-11
2022/10/08 04:38:35;;;;;;;2.28;1.02;;;20.90;46.60;;;;;;5134429;27;20089;-11
2022/10/08 04:41:06;;;;;;;1.25;0.90;;;20.90;46.60;;;;;;5135355;28;20075;-11
2022/10/08 04:43:33;;;;;;;2.00;1.13;;;21.00;46.60;;;;;;5135478;28;20051;-11
2022/10/08 04:45:59;;;;;;;1.25;1.15;;;21.00;46.60;;;;;;5135342;28;20058;-11
2022/10/08 04:48:25;;;;;;;0.80;0.80;;;21.00;46.60;;;;;;5135351;28;20047;-11
2022/10/08 04:50:56;;;;;;;1.00;0.80;;;20.90;46.50;;;;;;5135136;28;20087;-11
2022/10/08 04:53:22;;;;;;;1.73;1.20;;;20.90;46.60;;;;;;5135450;28;20407;-11
2022/10/08 04:55:47;;;;;;;1.20;0.90;;;21.00;46.60;;;;;;5135160;28;20281;-11
2022/10/08 04:58:13;;;;;;;1.67;1.08;;;21.00;46.60;;;;;;5135446;28;20513;-11
2022/10/08 05:00:38;;;;;;;1.60;0.98;;;21.00;46.60;;;;;;5134830;28;20138;-11
2022/10/08 05:03:04;;;;;;;1.45;1.00;;;21.00;46.60;;;;;;5135058;28;20097;-11
2022/10/08 05:05:29;;;;;;;1.67;1.00;;;21.00;46.60;;;;;;5135591;28;20051;-11
2022/10/08 05:07:55;;;;;;;2.45;1.30;;;21.00;46.60;;;;;;5135456;28;20471;-11
2022/10/08 05:10:22;;;;;;;2.20;1.10;;;21.00;46.60;;;;;;5134806;28;20051;-11
2022/10/08 05:12:48;;;;;;;1.10;0.85;;;20.90;46.60;;;;;;5134909;28;20050;-11
2022/10/08 05:15:14;;;;;;;1.17;1.00;;;20.90;46.60;;;;;;5134889;28;20073;-11
2022/10/08 05:17:40;;;;;;;1.42;0.93;;;20.90;46.60;;;;;;5116173;28;20069;-11
2022/10/08 05:20:06;;;;;;;1.67;1.20;;;20.90;46.70;;;;;;5134724;28;20058;-11
2022/10/08 05:22:32;;;;;;;1.40;1.20;;;20.90;46.70;;;;;;5134618;28;20055;-11
2022/10/08 05:24:57;;;;;;;1.85;1.00;;;20.90;46.70;;;;;;5134659;28;20376;-11
2022/10/08 05:27:23;;;;;;;2.10;1.00;;;20.90;46.70;;;;;;5134559;28;20096;-11
2022/10/08 05:29:49;;;;;;;1.67;1.10;;;20.90;46.70;;;;;;5134603;28;20051;-11
2022/10/08 05:32:14;;;;;;;1.63;1.20;;;20.90;46.70;;;;;;5134621;28;20506;-11
2022/10/08 05:34:40;;;;;;;1.30;0.82;;;20.90;46.70;;;;;;5134694;28;20055;-11
2022/10/08 05:37:05;;;;;;;1.52;1.08;;;20.90;46.70;;;;;;5135013;28;20043;-11
2022/10/08 05:39:31;;;;;;;1.50;1.02;;;20.90;46.80;;;;;;5134293;28;20100;-11
2022/10/08 05:41:57;;;;;;;1.15;1.05;;;20.90;46.80;;;;;;5134253;28;20152;-11
2022/10/08 05:44:22;;;;;;;1.05;0.93;;;20.90;46.80;;;;;;5134347;28;20047;-11
2022/10/08 05:46:48;;;;;;;1.83;1.10;;;20.80;46.70;;;;;;5134844;28;20069;-11
2022/10/08 05:49:20;;;;;;;1.10;0.90;;;20.90;46.80;;;;;;5133952;27;20063;-11
2022/10/08 05:51:46;;;;;;;0.82;0.80;;;20.80;46.70;;;;;;5134592;28;20085;-11
2022/10/08 05:54:12;;;;;;;2.33;1.30;;;20.80;46.80;;;;;;5134061;28;20108;-11
2022/10/08 05:56:37;;;;;;;1.70;1.10;;;20.90;46.80;;;;;;5134273;28;20055;-11
2022/10/08 05:59:03;;;;;;;1.05;0.95;;;20.80;46.70;;;;;;5133925;28;20084;-11
2022/10/08 06:01:32;;;;;;;2.22;1.10;;;20.90;46.80;;;;;;5133760;28;20054;-11
2022/10/08 06:04:00;;;;;;;1.23;0.90;;;20.90;46.80;;;;;;5134272;28;20137;-11
2022/10/08 06:06:27;;;;;;;1.10;0.88;;;20.80;46.80;;;;;;5133955;28;20057;-11
2022/10/08 06:08:58;;;;;;;1.98;1.02;;;20.80;46.80;;;;;;5133750;28;20067;-11
2022/10/08 06:11:29;;;;;;;1.13;1.02;;;20.80;46.70;;;;;;5133940;28;20099;-11
2022/10/08 06:13:56;;;;;;;1.17;0.88;;;20.90;46.80;;;;;;5134177;28;20448;-11
2022/10/08 06:16:23;;;;;;;1.83;1.50;;;20.90;46.80;;;;;;5133880;28;20055;-11
2022/10/08 06:18:48;;;;;;;1.13;0.75;;;20.90;46.70;;;;;;5133639;28;20051;-11
2022/10/08 06:21:20;;;;;;;1.23;1.10;;;20.90;46.70;;;;;;5133604;28;20050;-11
2022/10/08 06:23:51;;;;;;;2.03;1.10;;;20.90;46.70;;;;;;5134305;28;20142;-11
2022/10/08 06:26:17;;;;;;;1.50;0.98;;;20.90;46.70;;;;;;5134155;28;20141;-11
2022/10/08 06:28:44;;;;;;;1.80;1.02;;;20.90;46.60;;;;;;5133823;28;20051;-11
2022/10/08 06:31:10;;;;;;;1.00;0.93;;;20.90;46.70;;;;;;5133645;28;20047;-11
2022/10/08 06:33:35;;;;;;;1.52;1.00;;;20.90;46.60;;;;;;5133674;28;20491;-11
2022/10/08 06:36:06;;;;;;;1.40;0.90;;;21.00;46.60;;;;;;5133706;28;20130;-11
2022/10/08 06:38:32;;;;;;;1.95;1.15;;;20.90;46.60;;;;;;5133996;28;20486;-11
2022/10/08 06:40:58;;;;;;;1.95;1.33;;;20.90;46.60;;;;;;5115096;28;20056;-11
2022/10/08 06:43:24;;;;;;;1.20;0.98;;;20.90;46.60;;;;;;5133527;28;20054;-11
2022/10/08 06:45:50;;;;;;;1.27;0.90;;;20.90;46.60;;;;;;5133495;28;20133;-11
2022/10/08 06:48:15;;;;;;;1.38;1.05;;;20.90;46.60;;;;;;5133583;28;20392;-11
2022/10/08 06:50:41;;;;;;;1.80;1.10;;;20.90;46.60;;;;;;5133354;28;20055;-11
2022/10/08 06:53:09;;;;;;;1.20;0.88;;;20.90;46.70;;;;;;5133398;28;20100;-11
2022/10/08 06:55:35;;;;;;;1.05;0.90;;;20.90;46.70;;;;;;5133259;28;20061;-11
2022/10/08 06:58:02;;;;;;;1.45;1.00;;;20.90;46.70;;;;;;5133733;28;20047;-11
2022/10/08 07:00:28;;;;;;;1.40;1.02;;;20.90;46.60;;;;;;5133156;27;20090;-11
2022/10/08 07:02:55;;;;;;;1.40;0.90;;;20.90;46.70;;;;;;5136303;28;20061;-11
2022/10/08 07:05:21;;;;;;;1.23;0.98;;;20.90;46.70;;;;;;5137258;28;20059;-11
2022/10/08 07:07:46;;;;;;;1.67;0.73;;;20.90;46.60;;;;;;5136678;28;20519;-11
2022/10/08 07:10:12;;;;;;;2.72;1.20;;;20.90;46.60;;;;;;5136896;28;20138;-11
2022/10/08 07:12:37;;;;;;;1.73;1.10;;;21.00;46.50;;;;;;5136854;28;20051;-11
2022/10/08 07:15:04;;;;;;;1.50;0.80;;;21.20;46.30;;;;;;5137320;28;20146;-11
2022/10/08 07:17:30;;;;;;;1.05;0.77;;;21.40;45.60;;;;;;5136639;28;20051;-11
2022/10/08 07:19:56;;;;;;;1.48;1.10;;;21.50;45.40;;;;;;5136903;28;21019;-11
2022/10/08 07:22:23;;;;;;;0.95;0.93;;;21.50;45.30;;;;;;5118157;28;20050;-11
2022/10/08 07:24:49;;;;;;;1.65;1.00;;;21.60;45.30;;;;;;5137155;28;20133;-10
2022/10/08 07:27:15;;;;;;;1.52;0.98;;;21.60;45.20;;;;;;5136747;28;20137;-11
2022/10/08 07:29:41;;;;;;;1.40;1.05;;;21.60;45.10;;;;;;5136566;28;20478;-11
2022/10/08 07:32:06;;;;;;;1.45;0.90;;;21.70;45.10;;;;;;5136611;28;20077;-11
2022/10/08 07:34:32;;;;;;;1.60;1.10;;;21.70;45.00;;;;;;5136423;28;20402;-11
2022/10/08 07:36:57;;;;;;;1.00;0.80;;;21.60;45.10;;;;;;5136604;28;20066;-11
2022/10/08 07:39:23;;;;;;;1.30;0.98;;;21.70;45.10;;;;;;5136651;28;20131;-11
2022/10/08 07:41:49;;;;;;;1.60;0.90;;;21.70;45.10;;;;;;5136304;28;20043;-11
2022/10/08 07:44:15;;;;;;;1.55;0.90;;;21.70;45.00;;;;;;5136177;28;20051;-11
2022/10/08 07:46:44;;;;;;;1.98;1.20;;;21.70;44.90;;;;;;5136374;28;20069;-11
2022/10/08 07:49:09;;;;;;;1.42;1.10;;;21.70;44.90;;;;;;5136173;28;20073;-11
2022/10/08 07:51:35;;;;;;;2.42;1.10;;;21.70;44.90;;;;;;5136306;28;20047;-11
2022/10/08 07:54:03;;;;;;;1.58;1.10;;;21.70;44.90;;;;;;5135929;28;20051;-11
2022/10/08 07:56:29;;;;;;;1.83;1.10;;;21.70;45.00;;;;;;5135926;28;20487;-11
2022/10/08 07:58:55;;;;;;;1.77;1.15;;;21.70;45.00;;;;;;5136550;28;20043;-11
2022/10/08 08:01:27;;;;;;;1.35;1.08;;;21.70;45.10;;;;;;5136348;28;20051;-11
2022/10/08 08:03:54;;;;;;;2.15;1.15;;;21.70;45.10;;;;;;5136322;28;20451;-11
2022/10/08 08:06:20;;;;;;;1.85;0.93;;;21.70;45.10;;;;;;5117323;28;20047;-11
2022/10/08 08:08:45;;;;;;;1.35;1.00;;;21.70;45.10;;;;;;5136058;28;20471;-11
2022/10/08 08:11:14;;;;;;;2.08;1.20;;;21.70;45.10;;;;;;5135782;28;20542;-11
2022/10/08 08:13:41;;;;;;;0.93;0.93;;;21.70;45.10;;;;;;5134500;27;20047;-11
2022/10/08 08:16:09;;;;;;;1.88;1.00;;;21.60;45.20;;;;;;5135785;28;20442;-11
2022/10/08 08:18:38;;;;;;;1.85;1.15;;;21.60;45.20;;;;;;5136009;28;20376;-11
2022/10/08 08:21:06;;;;;;;1.58;1.00;;;21.50;45.30;;;;;;5115884;28;20047;-11
2022/10/08 08:23:34;;;;;;;1.92;1.20;;;21.50;45.40;;;;;;5135726;28;20058;-11
2022/10/08 08:26:02;;;;;;;1.50;0.98;;;21.50;45.40;;;;;;5135613;28;20054;-11
2022/10/08 08:28:28;;;;;;;0.93;0.88;;;21.50;45.40;;;;;;5135625;28;20104;-11
2022/10/08 08:31:04;;;;;;;1.95;1.10;;;21.50;45.40;;;;;;5135841;28;21006;-11
2022/10/08 08:33:30;;;;;;;1.40;0.90;;;21.50;45.50;;;;;;5135638;28;20047;-11
2022/10/08 08:35:55;;;;;;;1.50;1.17;;;21.50;45.60;;;;;;5135485;28;20047;-11
2022/10/08 08:38:21;;;;;;;1.55;1.15;;;21.50;45.60;;;;;;5135430;28;20047;-11
2022/10/08 08:40:47;;;;;;;2.80;1.30;;;21.40;45.50;;;;;;5135843;28;20058;-10
2022/10/08 08:43:12;;;;;;;2.08;1.20;;;21.50;45.60;;;;;;5135379;28;20517;-11
2022/10/08 08:45:40;;;;;;;1.67;1.10;;;21.50;45.60;;;;;;5135335;28;20139;-11
2022/10/08 08:48:22;;;;;;;1.92;1.15;;;21.40;45.60;;;;;;5135312;28;20459;-11
2022/10/08 08:50:50;;;;;;;0.88;0.82;;;21.50;45.60;;;;;;5135035;28;20146;-11
2022/10/08 08:53:17;;;;;;;1.23;0.93;;;21.50;45.60;;;;;;5135188;28;20062;-11
2022/10/08 08:55:46;;;;;;;1.58;1.10;;;21.50;45.60;;;;;;5135120;28;20126;-11
2022/10/08 08:58:44;;;;;;;1.13;0.93;;;21.40;45.60;;;;;;5135153;28;20054;-11
2022/10/08 09:01:18;;;;;;;1.52;0.98;;;21.40;45.70;;;;;;5132969;28;20047;-11
2022/10/08 09:03:51;;;;;;;1.25;0.88;;;21.40;45.70;;;;;;5135114;28;20055;-11
2022/10/08 09:06:21;;;;;;;1.30;0.95;;;21.40;45.70;;;;;;5135096;28;20105;-11
2022/10/08 09:08:52;;;;;;;0.50;0.50;;;21.40;45.70;;;;;;5135103;28;20092;-11
2022/10/08 09:11:21;;;;;;;1.30;1.08;;;21.40;45.60;;;;;;5135525;28;20058;-11
2022/10/08 09:14:07;;;;;;;1.98;1.33;;;21.40;45.60;;;;;;5135189;28;20089;-11
2022/10/08 09:16:34;;;;;;;1.65;1.00;;;21.40;45.60;;;;;;5135052;28;20522;-11
2022/10/08 09:19:00;;;;;;;1.27;0.93;;;21.50;45.70;;;;;;5134675;28;20531;-11
2022/10/08 09:21:30;;;;;;;1.20;1.00;;;21.40;45.60;;;;;;5134803;28;20108;-11
2022/10/08 09:23:55;;;;;;;1.70;1.20;;;21.40;45.70;;;;;;5134056;27;20043;-11
2022/10/08 09:26:23;;;;;;;1.40;0.90;;;21.40;45.80;;;;;;5134684;28;20104;-11
2022/10/08 09:28:51;;;;;;;1.60;1.02;;;21.40;45.70;;;;;;5116049;28;20047;-12
2022/10/08 09:31:39;;;;;;;1.30;0.93;;;21.40;45.70;;;;;;5134977;28;20372;-10
2022/10/08 09:34:19;;;;;;;1.02;0.93;;;21.40;45.70;;;;;;5134377;28;20055;-11
2022/10/08 09:37:03;;;;;;;1.50;1.13;;;21.40;45.80;;;;;;5134955;28;20059;-11
2022/10/08 09:39:36;;;;;;;1.13;1.02;;;21.40;45.80;;;;;;5134485;28;20059;-11
2022/10/08 09:42:13;;;;;;;1.00;0.90;;;21.40;45.80;;;;;;5134307;28;20055;-11
2022/10/08 09:44:45;;;;;;;1.00;0.90;;;21.40;45.80;;;;;;5134768;28;20053;-11
2022/10/08 09:47:17;;;;;;;1.63;1.15;;;21.40;45.80;;;;;;5134697;28;20391;-11
2022/10/08 09:49:48;;;;;;;1.52;0.98;;;21.40;45.70;;;;;;5134541;28;20578;-11
2022/10/08 09:52:25;;;;;;;1.25;0.82;;;21.40;45.70;;;;;;5134294;28;20043;-11
2022/10/08 09:55:00;;;;;;;1.77;1.15;;;21.40;45.70;;;;;;5134229;28;20501;-11
2022/10/08 09:57:27;;;;;;;1.10;0.80;;;21.50;45.70;;;;;;5134120;28;20047;-11
2022/10/08 09:59:56;;;;;;;1.42;1.00;;;21.50;45.60;;;;;;5134278;28;20099;-11
2022/10/08 10:02:31;;;;;;;1.38;1.00;;;21.50;45.50;;;;;;5134194;28;20062;-11
2022/10/08 10:04:59;;;;;;;0.95;0.90;;;21.50;45.50;;;;;;5134478;28;20054;-11
2022/10/08 10:07:39;;;;;;;1.95;1.02;;;21.50;45.50;;;;;;5133776;28;20047;-12
2022/10/08 10:10:17;;;;;;;2.20;1.02;;;21.50;45.50;;;;;;5133986;28;20055;-11
2022/10/08 10:12:47;;;;;;;2.03;1.00;;;21.50;45.50;;;;;;5133981;28;20050;-11
2022/10/08 10:15:28;;;;;;;0.80;0.60;;;21.50;45.50;;;;;;5134087;28;20086;-11
2022/10/08 10:18:03;;;;;;;1.67;1.20;;;21.50;45.50;;;;;;5133836;28;20285;-11
2022/10/08 10:20:46;;;;;;;1.23;1.02;;;21.60;45.50;;;;;;5133601;28;20376;-11
2022/10/08 10:23:17;;;;;;;1.60;1.00;;;21.60;45.50;;;;;;5134321;28;20081;-11
2022/10/08 10:26:14;;;;;;;2.00;1.10;;;21.50;45.50;;;;;;5134077;28;20391;-11
2022/10/08 10:28:59;;;;;;;1.50;0.93;;;21.50;45.60;;;;;;5129657;28;20051;-11
2022/10/08 10:31:37;;;;;;;2.85;1.10;;;21.50;45.60;;;;;;5133645;28;20091;-11
2022/10/08 10:34:09;;;;;;;1.55;1.00;;;21.50;45.60;;;;;;5133569;28;20058;-11
2022/10/08 10:36:41;;;;;;;1.77;1.10;;;21.50;45.50;;;;;;5132697;27;20096;-11
2022/10/08 10:39:34;;;;;;;4.15;1.33;;;21.50;45.50;;;;;;5133820;28;20407;-11
2022/10/08 10:42:18;;;;;;;3.45;1.10;;;21.50;45.50;;;;;;5133669;28;20463;-11
2022/10/08 10:44:49;;;;;;;1.02;0.93;;;21.60;45.60;;;;;;5133590;28;20043;-11
2022/10/08 10:47:19;;;;;;;1.67;1.00;;;21.60;46.00;;;;;;5133618;28;20928;-11
2022/10/08 10:49:45;;;;;;;1.00;0.90;;;21.60;45.50;;;;;;5133924;28;20047;-11
2022/10/08 10:52:21;;;;;;;1.80;0.98;;;21.60;45.50;;;;;;5133726;28;20489;-11
2022/10/08 10:55:02;;;;;;;1.08;0.98;;;21.60;45.50;;;;;;5133295;28;20495;-11
2022/10/08 10:57:55;;;;;;;1.27;0.90;;;21.50;45.50;;;;;;5133301;28;20054;-11
2022/10/08 11:00:42;;;;;;;2.25;1.20;;;21.60;45.50;;;;;;5133647;28;20479;-10
2022/10/08 11:03:21;;;;;;;1.15;0.85;;;21.50;45.40;;;;;;5133290;28;20047;-11
2022/10/08 11:05:55;;;;;;;1.10;1.00;;;21.60;45.50;;;;;;5133424;28;20961;-11
2022/10/08 11:08:32;;;;;;;1.17;0.95;;;21.50;45.50;;;;;;5133147;28;20055;-11
2022/10/08 11:11:07;;;;;;;1.50;1.13;;;21.50;45.70;;;;;;5133226;28;20043;-11
2022/10/08 11:13:39;;;;;;;1.55;1.00;;;21.50;45.70;;;;;;5133276;28;20077;-11
2022/10/08 11:16:15;;;;;;;1.30;1.10;;;21.40;45.70;;;;;;5133589;28;20051;-11
2022/10/08 11:18:59;;;;;;;1.80;1.20;;;21.40;45.70;;;;;;5133180;28;20081;-11
2022/10/08 11:22:06;;;;;;;1.08;0.93;;;21.40;45.80;;;;;;5132679;28;20055;-11
2022/10/08 11:25:01;;;;;;;1.83;1.05;;;21.40;45.90;;;;;;5133261;28;20035;-11
2022/10/08 11:28:04;;;;;;;1.35;0.90;;;21.30;45.90;;;;;;5132550;28;20043;-11
2022/10/08 11:31:07;;;;;;;1.58;1.00;;;21.30;46.00;;;;;;5132954;28;20055;-11
2022/10/08 11:33:34;;;;;;;0.80;0.80;;;21.30;46.10;;;;;;5133464;28;20050;-11
2022/10/08 11:36:20;;;;;;;0.80;0.73;;;21.30;46.10;;;;;;5132938;28;20043;-11
2022/10/08 11:39:12;;;;;;;1.92;1.25;;;21.30;46.20;;;;;;5133027;28;20420;-11
2022/10/08 11:41:58;;;;;;;1.73;1.10;;;21.30;46.20;;;;;;5132548;28;20047;-11
2022/10/08 11:44:26;;;;;;;1.35;0.80;;;21.20;46.20;;;;;;5133078;28;20062;-11
2022/10/08 11:47:31;;;;;;;1.40;0.82;;;21.20;46.20;;;;;;5132421;27;20062;-11
2022/10/08 11:49:57;;;;;;;1.73;1.33;;;21.20;46.20;;;;;;5136224;28;20086;-11
2022/10/08 11:52:28;;;;;;;1.42;1.10;;;21.20;46.20;;;;;;5136125;28;20079;-11
2022/10/08 11:54:54;;;;;;;1.67;1.00;;;21.30;46.20;;;;;;5136280;28;20047;-11
2022/10/08 11:57:35;;;;;;;1.40;1.00;;;21.30;46.10;;;;;;5136134;28;20448;-11
2022/10/08 12:00:23;;;;;;;3.42;1.27;;;21.30;46.10;;;;;;5136320;28;20502;-11
2022/10/08 12:02:54;;;;;;;2.47;1.52;;;21.30;46.00;;;;;;5136011;28;20079;-11
2022/10/08 12:05:22;;;;;;;0.77;0.77;;;21.40;46.00;;;;;;5136087;28;20050;-11
2022/10/08 12:07:54;;;;;;;1.33;1.00;;;21.40;45.90;;;;;;5135774;28;20162;-11
2022/10/08 12:10:37;;;;;;;1.40;0.90;;;21.40;45.90;;;;;;5135943;28;20047;-11
2022/10/08 12:13:12;;;;;;;1.42;1.05;;;21.40;45.90;;;;;;5135834;28;20043;-11
2022/10/08 12:15:39;;;;;;;1.23;0.90;;;21.40;46.00;;;;;;5136088;28;20154;-11
2022/10/08 12:18:21;;;;;;;1.92;0.90;;;21.30;45.90;;;;;;5135837;28;20466;-11
2022/10/08 12:21:15;;;;;;;1.00;0.88;;;21.30;46.00;;;;;;5135803;28;20508;-11
2022/10/08 12:23:43;;;;;;;1.10;0.80;;;21.30;46.00;;;;;;5135935;28;20047;-11
2022/10/08 12:26:11;;;;;;;1.80;1.00;;;21.30;46.50;;;;;;5135614;28;20051;-11
2022/10/08 12:28:43;;;;;;;1.55;1.05;;;21.30;46.10;;;;;;5135437;28;20130;-11
2022/10/08 12:31:38;;;;;;;1.10;0.80;;;21.30;46.10;;;;;;5135895;28;20087;-11
2022/10/08 12:34:16;;;;;;;1.50;0.90;;;21.30;46.10;;;;;;5135058;28;20426;-11
2022/10/08 12:36:55;;;;;;;1.20;1.10;;;21.30;46.20;;;;;;5135459;28;20047;-11
2022/10/08 12:39:41;;;;;;;2.00;0.98;;;21.20;46.10;;;;;;5135304;28;20078;-11
2022/10/08 12:42:29;;;;;;;1.13;0.93;;;21.20;46.20;;;;;;5135265;28;20039;-11
2022/10/08 12:45:21;;;;;;;1.35;0.93;;;21.20;46.20;;;;;;5135710;28;20047;-11
2022/10/08 12:48:15;;;;;;;1.98;1.00;;;21.20;46.30;;;;;;5116051;28;20376;-11
2022/10/08 12:50:49;;;;;;;1.38;1.08;;;21.20;46.30;;;;;;5135379;28;20051;-11
2022/10/08 12:53:16;;;;;;;2.08;1.15;;;21.10;46.40;;;;;;5135642;28;20122;-11
2022/10/08 12:55:52;;;;;;;1.58;1.10;;;21.10;46.40;;;;;;5135035;28;20047;-11
2022/10/08 12:58:22;;;;;;;2.97;1.20;;;21.10;46.40;;;;;;5135065;27;20107;-11
2022/10/08 13:00:54;;;;;;;1.55;1.05;;;21.10;46.50;;;;;;5134565;28;20062;-11
2022/10/08 13:03:20;;;;;;;1.85;0.73;;;21.10;46.40;;;;;;5135004;28;20126;-11
2022/10/08 13:05:47;;;;;;;0.90;0.90;;;21.10;46.40;;;;;;5135205;28;20142;-11
2022/10/08 13:08:36;;;;;;;1.48;0.90;;;21.10;46.40;;;;;;5135098;28;20150;-11
2022/10/08 13:11:06;;;;;;;2.20;1.20;;;21.20;46.40;;;;;;5134967;28;20050;-11
2022/10/08 13:13:38;;;;;;;0.90;0.80;;;21.10;46.40;;;;;;5135374;28;20043;-11